Time;durP1;ratioP1;P1;durP2;ratioP2;P2;SDS_P1;SDS_P2;PMS_P1;PMS_P2;Temp;Humidity;BMP_temperature;BMP_pressure;BME280_temperature;BME280_humidity;BME280_pressure;Samples;Min_cycle;Max_cycle;Signal;HPM_P1;HPM_P2
2021/10/28 00:14:57;;;;;;;56.27;33.80;;;;;;;4.16;79.22;99845.61;2170170;82;20956;-81
2021/10/28 00:21:04;;;;;;;58.73;36.03;;;;;;;4.07;79.45;99842.54;2161257;82;21040;-80
2021/10/28 00:24:05;;;;;;;248.07;44.70;;;;;;;4.03;79.43;99841.00;2170420;81;21012;-79
2021/10/28 00:27:06;;;;;;;98.53;61.57;;;;;;;3.97;79.34;99838.09;2171076;81;20964;-81
2021/10/28 00:30:06;;;;;;;65.83;39.77;;;;;;;3.93;79.15;99847.78;2170626;81;20973;-81
2021/10/28 00:33:07;;;;;;;79.73;38.43;;;;;;;3.87;79.11;99848.33;2170777;81;20980;-79
2021/10/28 00:36:07;;;;;;;65.83;38.30;;;;;;;3.81;79.28;99851.47;2170995;81;21008;-81
2021/10/28 00:39:08;;;;;;;59.23;36.47;;;;;;;3.83;79.45;99851.56;2171030;81;20977;-82
2021/10/28 00:42:09;;;;;;;72.27;36.60;;;;;;;3.79;79.48;99858.25;2170953;81;20933;-79
2021/10/28 00:45:09;;;;;;;61.40;37.20;;;;;;;3.73;79.32;99851.86;2170391;81;21379;-81
2021/10/28 00:48:10;;;;;;;66.13;38.00;;;;;;;3.69;79.40;99857.27;2170616;82;21292;-80
2021/10/28 00:51:11;;;;;;;60.23;34.47;;;;;;;3.66;79.28;99857.09;2171084;81;20953;-82
2021/10/28 00:54:11;;;;;;;57.67;32.37;;;;;;;3.66;79.42;99855.80;2171311;81;21020;-81
2021/10/28 00:57:12;;;;;;;55.63;32.23;;;;;;;3.62;79.27;99856.44;2171350;82;20952;-81
2021/10/28 01:00:13;;;;;;;54.80;32.00;;;;;;;3.57;79.14;99847.95;2171498;81;20979;-81
2021/10/28 01:03:13;;;;;;;55.10;32.10;;;;;;;3.50;78.98;99847.61;2171496;81;20973;-82
2021/10/28 01:06:14;;;;;;;57.53;32.67;;;;;;;3.44;78.83;99843.77;2171760;81;20993;-81
2021/10/28 01:09:15;;;;;;;59.63;33.93;;;;;;;3.38;78.93;99839.16;2171218;81;20929;-81
2021/10/28 01:12:15;;;;;;;59.07;32.90;;;;;;;3.34;78.96;99833.73;2171781;81;21044;-81
2021/10/28 01:15:17;;;;;;;69.63;37.50;;;;;;;3.27;78.87;99836.78;2170992;81;21004;-81
2021/10/28 01:18:18;;;;;;;63.60;35.33;;;;;;;3.20;78.89;99839.02;2171017;81;20941;-80
2021/10/28 01:21:18;;;;;;;64.50;37.90;;;;;;;3.14;78.64;99834.80;2171965;81;20937;-80
2021/10/28 01:24:19;;;;;;;59.27;36.50;;;;;;;3.08;78.80;99839.61;2171637;81;21024;-82
2021/10/28 01:27:19;;;;;;;66.17;37.53;;;;;;;3.05;78.91;99843.30;2170929;81;20999;-81
2021/10/28 01:30:20;;;;;;;65.80;36.20;;;;;;;3.04;79.03;99844.51;2172061;81;20956;-82
2021/10/28 01:33:20;;;;;;;67.07;37.87;;;;;;;3.03;78.92;99841.44;2171975;81;21008;-82
2021/10/28 01:36:22;;;;;;;75.50;34.70;;;;;;;3.02;79.08;99847.40;2172203;81;20952;-80
2021/10/28 01:39:22;;;;;;;61.87;34.90;;;;;;;2.97;78.93;99849.72;2172165;81;20965;-81
2021/10/28 01:42:23;;;;;;;103.10;40.57;;;;;;;2.91;78.71;99851.05;2172666;81;20948;-82
2021/10/28 01:45:23;;;;;;;64.33;36.70;;;;;;;2.86;78.81;99856.83;2172427;81;21035;-81
2021/10/28 01:48:24;;;;;;;66.60;37.53;;;;;;;2.79;78.39;99852.52;2172155;81;20913;-81
2021/10/28 01:51:24;;;;;;;63.87;38.13;;;;;;;2.74;78.74;99850.96;2171910;81;20961;-81
2021/10/28 01:54:25;;;;;;;59.27;35.77;;;;;;;2.70;78.69;99858.03;2172174;82;21071;-81
2021/10/28 01:57:26;;;;;;;59.33;35.23;;;;;;;2.68;78.77;99852.29;2171964;81;20948;-81
2021/10/28 02:00:26;;;;;;;107.43;68.47;;;;;;;2.64;78.87;99851.63;2171839;81;20941;-82
2021/10/28 02:03:27;;;;;;;60.43;38.47;;;;;;;2.63;78.96;99856.28;2171742;81;20933;-82
2021/10/28 02:06:28;;;;;;;66.47;35.77;;;;;;;2.60;78.89;99854.42;2172116;81;20924;-81
2021/10/28 02:09:29;;;;;;;59.67;35.57;;;;;;;2.58;78.83;99857.67;2172096;82;20993;-82
2021/10/28 02:12:29;;;;;;;77.77;36.57;;;;;;;2.56;78.90;99857.18;2171124;81;21003;-81
2021/10/28 02:15:30;;;;;;;62.50;36.03;;;;;;;2.56;78.97;99852.02;2170825;81;21000;-79
2021/10/28 02:18:31;;;;;;;69.40;35.00;;;;;;;2.53;78.68;99855.71;2170980;81;20968;-81
2021/10/28 02:21:31;;;;;;;65.53;36.03;;;;;;;2.49;78.65;99857.61;2170395;81;21367;-81
2021/10/28 02:24:34;;;;;;;89.90;37.80;;;;;;;2.44;78.49;99852.98;2170481;81;21019;-81
2021/10/28 02:27:34;;;;;;;87.60;39.03;;;;;;;2.38;78.53;99844.48;2170679;81;21032;-81
2021/10/28 02:30:36;;;;;;;100.13;38.33;;;;;;;2.38;78.49;99844.48;2170963;81;20953;-80
2021/10/28 02:33:37;;;;;;;61.10;34.00;;;;;;;2.37;78.70;99841.42;2171248;81;20981;-81
2021/10/28 02:36:38;;;;;;;77.83;34.87;;;;;;;2.33;78.48;99843.33;2170848;81;21387;-81
2021/10/28 02:39:38;;;;;;;82.33;37.63;;;;;;;2.29;78.43;99848.20;2170875;81;20973;-82
2021/10/28 02:42:39;;;;;;;60.20;36.70;;;;;;;2.20;78.23;99851.11;2171053;81;20933;-82
2021/10/28 02:45:40;;;;;;;61.67;36.93;;;;;;;2.17;78.43;99849.64;2170991;81;20956;-82
2021/10/28 02:48:40;;;;;;;61.07;35.27;;;;;;;2.12;78.36;99851.05;2170782;82;21352;-82
2021/10/28 02:51:46;;;;;;;62.50;34.63;;;;;;;2.07;78.46;99855.92;2170911;81;21015;-81
2021/10/28 02:54:43;;;;;;;62.27;36.10;;;;;;;2.07;78.64;99855.03;2169868;81;21144;-81
2021/10/28 02:57:44;;;;;;;60.37;35.93;;;;;;;2.06;78.63;99864.84;2170359;81;21012;-82
2021/10/28 03:00:44;;;;;;;65.33;35.27;;;;;;;2.04;78.67;99862.56;2170810;81;20983;-82
2021/10/28 03:03:45;;;;;;;58.90;35.23;;;;;;;2.04;78.68;99867.72;2171012;81;20965;-82
2021/10/28 03:06:45;;;;;;;70.20;34.40;;;;;;;2.02;78.57;99869.31;2171049;81;20929;-83
2021/10/28 03:09:46;;;;;;;57.27;33.97;;;;;;;1.98;78.54;99867.34;2171088;81;20964;-82
2021/10/28 03:12:49;;;;;;;51.70;32.10;;;;;;;1.96;78.35;99873.69;2170666;81;20976;-82
2021/10/28 03:15:51;;;;;;;58.43;32.10;;;;;;;1.92;78.11;99873.00;2170928;81;21020;-80
2021/10/28 03:19:25;;;;;;;64.13;29.83;;;;;;;1.88;78.31;99870.63;2170517;81;21016;-81
2021/10/28 03:25:43;;;;;;;88.57;49.13;;;;;;;1.85;78.28;99857.97;2170626;82;21348;-80
2021/10/28 03:28:35;;;;;;;59.03;34.43;;;;;;;1.83;78.26;99860.45;2170251;81;21016;-82
2021/10/28 03:31:35;;;;;;;77.70;31.33;;;;;;;1.79;78.20;99864.91;2170226;81;21044;-82
2021/10/28 03:34:36;;;;;;;64.70;30.23;;;;;;;1.76;77.98;99867.70;2170641;81;21024;-81
2021/10/28 03:37:49;;;;;;;49.60;28.60;;;;;;;1.74;78.00;99873.14;2170632;82;21420;-80
2021/10/28 03:44:52;;;;;;;52.43;29.50;;;;;;;1.62;78.05;99879.66;2162008;82;20977;-81
2021/10/28 04:16:41;;;;;;;46.77;27.47;;;;;;;1.40;78.36;99870.09;2168914;82;21008;-82
2021/10/28 04:19:45;;;;;;;54.30;28.13;;;;;;;1.39;78.17;99873.05;2167707;81;21383;-83
2021/10/28 04:29:05;;;;;;;59.17;29.63;;;;;;;1.36;78.12;99870.28;2168940;82;20956;-82
2021/10/28 04:32:06;;;;;;;54.10;31.10;;;;;;;1.31;77.92;99874.25;2169078;81;20952;-82
2021/10/28 04:35:06;;;;;;;57.90;29.37;;;;;;;1.28;78.13;99868.91;2169931;81;20949;-81
2021/10/28 04:38:07;;;;;;;50.80;29.80;;;;;;;1.26;78.23;99866.23;2170691;81;21316;-81
2021/10/28 04:41:07;;;;;;;57.17;30.67;;;;;;;1.25;78.26;99872.17;2170797;81;20972;-82
2021/10/28 04:44:11;;;;;;;55.93;31.33;;;;;;;1.22;78.19;99874.55;2170790;81;20983;-83
2021/10/28 04:47:10;;;;;;;82.67;31.67;;;;;;;1.19;78.14;99873.45;2169906;81;21051;-83
2021/10/28 04:50:11;;;;;;;54.03;30.33;;;;;;;1.17;78.13;99877.22;2170365;81;21316;-82
2021/10/28 04:53:11;;;;;;;69.80;31.30;;;;;;;1.21;78.20;99879.20;2169022;81;21498;-83
2021/10/28 04:56:12;;;;;;;86.47;32.80;;;;;;;1.22;78.02;99884.83;2169284;81;21331;-81
2021/10/28 04:59:13;;;;;;;54.43;31.17;;;;;;;1.20;78.06;99882.55;2169422;81;20965;-81
2021/10/28 05:02:13;;;;;;;56.20;31.50;;;;;;;1.16;78.01;99878.00;2169989;81;20941;-82
2021/10/28 05:05:14;;;;;;;55.70;31.30;;;;;;;1.20;78.30;99882.55;2170038;82;20936;-81
2021/10/28 05:08:15;;;;;;;61.83;33.00;;;;;;;1.20;78.04;99883.84;2170186;82;20953;-80
2021/10/28 05:11:15;;;;;;;61.30;33.50;;;;;;;1.20;78.12;99881.66;2170083;81;21004;-81
2021/10/28 05:14:16;;;;;;;63.33;34.50;;;;;;;1.23;78.18;99888.30;2170333;82;21411;-80
2021/10/28 05:17:16;;;;;;;66.80;31.93;;;;;;;1.22;77.83;99895.12;2169899;82;20968;-80
2021/10/28 05:20:17;;;;;;;59.97;32.53;;;;;;;1.19;77.42;99896.60;2170658;81;20961;-80
2021/10/28 05:23:18;;;;;;;53.60;31.50;;;;;;;1.13;77.36;99895.80;2171084;81;21003;-82
2021/10/28 05:26:18;;;;;;;64.27;34.00;;;;;;;1.12;77.64;99897.88;2170078;82;21557;-80
2021/10/28 05:29:19;;;;;;;52.27;31.73;;;;;;;1.16;77.68;99901.15;2170075;81;20956;-81
2021/10/28 05:32:19;;;;;;;56.47;32.47;;;;;;;1.18;77.67;99898.28;2169736;81;20968;-81
2021/10/28 05:35:20;;;;;;;59.60;31.60;;;;;;;1.20;77.75;99892.84;2169777;81;20941;-80
2021/10/28 05:38:21;;;;;;;374.40;53.40;;;;;;;1.22;77.29;99898.98;2171128;81;21361;-81
2021/10/28 05:41:22;;;;;;;64.30;32.37;;;;;;;1.26;77.48;99905.21;2170457;82;21012;-82
2021/10/28 05:44:22;;;;;;;222.60;41.23;;;;;;;1.31;77.61;99908.97;2169610;81;21281;-77
2021/10/28 05:47:23;;;;;;;66.20;31.17;;;;;;;1.36;77.25;99911.84;2170697;81;20968;-82
2021/10/28 05:50:24;;;;;;;103.50;34.60;;;;;;;1.39;77.43;99909.47;2171057;81;20964;-80
2021/10/28 05:53:25;;;;;;;77.43;32.80;;;;;;;1.44;77.49;99910.66;2170755;81;21077;-81
2021/10/28 05:56:25;;;;;;;157.43;37.67;;;;;;;1.47;77.50;99909.17;2170491;81;20997;-81
2021/10/28 05:59:26;;;;;;;77.10;33.87;;;;;;;1.54;77.47;99912.63;2170488;81;20961;-82
2021/10/28 06:02:26;;;;;;;59.50;33.30;;;;;;;1.64;77.46;99915.39;2170243;81;20941;-80
2021/10/28 06:05:27;;;;;;;98.33;34.17;;;;;;;1.73;77.33;99915.98;2169233;81;20977;-81
2021/10/28 06:08:28;;;;;;;53.80;31.67;;;;;;;1.77;77.19;99923.14;2169194;81;20956;-82
2021/10/28 06:11:29;;;;;;;61.00;34.43;;;;;;;1.83;77.13;99926.09;2168965;81;21403;-81
2021/10/28 06:14:31;;;;;;;55.50;32.50;;;;;;;1.89;77.13;99925.59;2169011;81;20945;-81
2021/10/28 06:17:38;;;;;;;56.00;33.30;;;;;;;1.95;77.10;99928.95;2168869;81;20972;-81
2021/10/28 06:20:34;;;;;;;62.17;35.67;;;;;;;2.04;77.24;99927.84;2167955;81;21012;-82
2021/10/28 06:23:35;;;;;;;55.03;33.70;;;;;;;2.19;77.37;99939.09;2167430;81;20968;-81
2021/10/28 06:26:35;;;;;;;55.93;31.67;;;;;;;2.32;77.33;99940.74;2167897;81;20945;-81
2021/10/28 06:29:36;;;;;;;69.87;35.93;;;;;;;2.39;77.13;99940.32;2168135;82;20944;-82
2021/10/28 06:32:37;;;;;;;70.17;35.63;;;;;;;2.48;77.17;99947.33;2168212;81;21000;-81
2021/10/28 06:35:37;;;;;;;57.73;34.50;;;;;;;2.56;77.17;99946.11;2168380;82;21340;-82
2021/10/28 06:38:38;;;;;;;114.90;38.80;;;;;;;2.71;77.32;99944.88;2167907;81;21754;-81
2021/10/28 06:41:39;;;;;;;137.17;41.90;;;;;;;2.86;77.44;99948.37;2168728;81;20941;-80
2021/10/28 06:44:39;;;;;;;88.97;37.77;;;;;;;3.02;77.43;99951.86;2168714;81;21325;-82
2021/10/28 06:47:40;;;;;;;64.67;35.97;;;;;;;3.16;77.21;99962.59;2168385;81;21356;-82
2021/10/28 06:50:46;;;;;;;63.43;35.70;;;;;;;3.30;77.11;99958.23;2168947;82;20984;-82
2021/10/28 06:53:54;;;;;;;58.50;35.33;;;;;;;3.42;76.85;99945.64;2168837;81;21063;-82
2021/10/28 07:03:07;;;;;;;56.83;36.40;;;;;;;3.86;76.84;99957.63;2169189;82;21072;-82
2021/10/28 07:06:19;;;;;;;68.37;38.27;;;;;;;4.02;76.85;99951.61;2169241;82;20961;-81
2021/10/28 07:09:21;;;;;;;81.00;38.63;;;;;;;4.20;76.79;99955.20;2169304;81;21475;-81
2021/10/28 07:12:26;;;;;;;58.27;35.53;;;;;;;4.37;76.77;99955.74;2167727;81;21012;-82
2021/10/28 07:31:45;;;;;;;93.35;38.95;;;;;;;6.45;76.26;99945.47;2158345;82;20959;-81
2021/10/28 07:35:00;;;;;;;157.40;43.70;;;;;;;6.58;75.33;99950.39;2169192;81;21068;-81
2021/10/28 08:20:43;;;;;;;68.67;42.13;;;;;;;9.17;74.45;99914.06;2168892;82;20953;-81
2021/10/28 08:23:39;;;;;;;80.43;51.87;;;;;;;9.43;74.40;99910.62;2168829;81;21052;-82
2021/10/28 08:29:56;;;;;;;99.43;48.67;;;;;;;9.87;73.59;99903.38;2169310;82;20953;-81
2021/10/28 08:32:55;;;;;;;80.70;49.03;;;;;;;10.09;73.19;99904.92;2169754;81;21420;-81
2021/10/28 08:36:06;;;;;;;77.70;49.53;;;;;;;10.29;73.05;99910.77;2169170;81;20982;-79
2021/10/28 08:38:58;;;;;;;89.87;53.17;;;;;;;10.46;72.46;99910.46;2167850;81;20972;-79
2021/10/28 08:41:59;;;;;;;72.70;46.47;;;;;;;10.64;72.28;99914.02;2169096;81;20992;-81
2021/10/28 08:45:00;;;;;;;66.83;46.57;;;;;;;10.81;72.04;99907.55;2169781;82;20953;-79
2021/10/28 08:48:03;;;;;;;75.70;45.65;;;;;;;10.95;71.57;99905.31;2169215;82;21043;-80
2021/10/28 08:51:07;;;;;;;69.50;44.98;;;;;;;11.04;71.39;99905.55;2169576;81;21340;-80
2021/10/28 08:57:40;;;;;;;66.55;41.83;;;;;;;11.27;70.98;99898.73;2159369;82;20950;-81
2021/10/28 09:19:29;;;;;;;64.07;38.70;;;;;;;11.42;70.80;99900.05;2167146;81;20987;-81
2021/10/28 09:26:26;;;;;;;78.70;29.05;;;;;;;12.50;68.03;99876.84;2168786;82;21066;-77
2021/10/28 09:32:44;;;;;;;57.45;27.67;;;;;;;12.82;66.80;99878.79;2169872;82;21023;-81
2021/10/28 09:36:09;;;;;;;36.83;25.62;;;;;;;12.90;67.05;99871.95;2169294;81;21008;-79
2021/10/28 09:45:23;;;;;;;41.05;27.65;;;;;;;13.05;66.11;99871.39;2170198;82;21017;-81
2021/10/28 09:48:32;;;;;;;34.55;23.30;;;;;;;13.17;66.14;99871.64;2170285;81;21375;-80
2021/10/28 09:51:26;;;;;;;35.63;26.15;;;;;;;13.26;64.80;99867.87;2169213;81;21004;-79
2021/10/28 09:57:55;;;;;;;34.10;24.27;;;;;;;13.41;64.67;99866.36;2159651;82;21360;-79
2021/10/28 10:00:52;;;;;;;36.63;22.82;;;;;;;13.51;64.96;99864.34;2168476;81;20929;-82
2021/10/28 10:03:57;;;;;;;37.10;24.50;;;;;;;13.59;63.27;99866.66;2168367;81;21015;-80
2021/10/28 10:06:55;;;;;;;49.65;25.65;;;;;;;13.58;63.51;99862.27;2167959;81;21012;-78
2021/10/28 10:09:56;;;;;;;70.57;27.82;;;;;;;13.69;64.25;99854.14;2168409;82;20977;-81
2021/10/28 10:12:56;;;;;;;44.03;26.45;;;;;;;13.86;63.91;99855.27;2168576;81;20953;-81
2021/10/28 10:15:57;;;;;;;44.73;26.07;;;;;;;14.00;63.30;99851.14;2168340;81;21015;-81
2021/10/28 10:18:59;;;;;;;33.20;23.92;;;;;;;14.07;62.68;99853.84;2169454;81;21634;-80
2021/10/28 10:22:17;;;;;;;37.73;25.23;;;;;;;14.09;61.78;99847.75;2169950;81;21032;-80
2021/10/28 10:25:11;;;;;;;36.55;25.43;;;;;;;14.12;62.39;99841.66;2167668;81;21024;-82
2021/10/28 11:28:12;;;;;;;50.95;23.25;;;;;;;14.89;59.17;99790.08;2168683;82;20952;-81
2021/10/28 11:31:09;;;;;;;32.17;19.92;;;;;;;14.96;59.12;99794.53;2167752;82;21040;-80
2021/10/28 12:20:28;;;;;;;32.03;16.05;;;;;;;15.26;57.07;99752.27;2168419;82;20988;-80
2021/10/28 12:23:42;;;;;;;53.80;18.40;;;;;;;15.27;57.46;99744.38;2166600;81;20976;-79
2021/10/28 12:46:07;;;;;;;23.62;15.55;;;;;;;15.47;56.27;99719.95;2168208;82;20941;-79
2021/10/28 12:55:55;;;;;;;25.30;15.63;;;;;;;15.48;55.69;99709.88;2159438;82;21008;-80
2021/10/28 13:05:55;;;;;;;36.55;17.02;;;;;;;15.53;56.11;99713.41;2160568;82;20989;-81
2021/10/28 13:34:53;;;;;;;26.23;14.43;;;;;;;15.36;56.74;99701.91;2169674;82;21043;-79
2021/10/28 13:48:22;;;;;;;21.42;15.08;;;;;;;15.17;56.87;99700.47;2169694;82;21032;-81
2021/10/28 13:51:22;;;;;;;23.60;14.80;;;;;;;15.13;56.77;99704.39;2167918;81;21407;-82
2021/10/28 13:54:28;;;;;;;21.45;14.98;;;;;;;15.10;56.96;99693.84;2168758;81;20964;-82
2021/10/28 13:57:29;;;;;;;23.07;14.83;;;;;;;15.09;57.07;99702.60;2169224;81;21459;-81
2021/10/28 14:30:38;;;;;;;53.38;10.35;;;;;;;14.25;59.41;99697.84;2170302;82;20977;-82
2021/10/28 14:36:42;;;;;;;13.83;9.33;;;;;;;13.97;60.12;99689.66;2161563;82;21062;-81
2021/10/28 15:02:24;;;;;;;12.88;8.08;;;;;;;12.39;64.27;99675.02;2161740;82;20963;-82
2021/10/28 15:28:14;;;;;;;18.27;8.07;;;;;;;10.59;67.98;99679.34;2169135;82;21023;-81
2021/10/28 15:41:17;;;;;;;18.13;9.37;;;;;;;9.75;69.75;99688.77;2128056;84;21010;-82
2021/10/28 15:47:57;;;;;;;14.27;7.80;;;;;;;9.40;70.58;99686.41;2170115;82;21356;-81
2021/10/28 15:57:09;;;;;;;15.57;9.03;;;;;;;8.98;72.04;99695.52;2161710;82;20992;-82
2021/10/28 16:00:19;;;;;;;13.57;10.53;;;;;;;8.85;72.57;99691.22;2126919;83;21316;-82
2021/10/28 16:21:49;;;;;;;53.07;11.67;;;;;;;8.63;73.04;99695.23;2170254;82;21044;-82
2021/10/28 16:23:03;;;;;;;18.40;9.97;;;;;;;8.08;74.82;99698.94;2170399;82;20932;-81
2021/10/28 16:26:04;;;;;;;24.57;10.93;;;;;;;7.99;75.24;99701.69;2169986;82;21032;-83
2021/10/28 16:29:07;;;;;;;21.57;10.67;;;;;;;7.92;75.22;99697.09;2170543;81;20949;-82
2021/10/28 16:32:07;;;;;;;20.83;11.00;;;;;;;7.84;75.41;99697.66;2170511;81;21056;-81
2021/10/28 16:35:08;;;;;;;22.23;12.03;;;;;;;7.74;75.62;99687.72;2169784;81;20909;-82
2021/10/28 16:38:09;;;;;;;16.10;12.17;;;;;;;7.67;76.29;99696.59;2169753;81;20976;-81
2021/10/28 16:41:09;;;;;;;142.30;20.40;;;;;;;7.61;76.11;99689.88;2170484;81;20971;-82
2021/10/28 16:44:10;;;;;;;41.70;11.93;;;;;;;7.54;76.78;99689.17;2170180;81;20988;-82
2021/10/28 16:47:11;;;;;;;16.03;10.97;;;;;;;7.47;76.34;99691.07;2170569;81;20937;-82
2021/10/28 16:50:13;;;;;;;14.87;10.23;;;;;;;7.40;76.49;99692.08;2170093;81;20949;-81
2021/10/28 16:53:14;;;;;;;14.03;9.87;;;;;;;7.29;76.33;99695.16;2169713;81;21011;-82
2021/10/28 16:56:15;;;;;;;17.93;10.73;;;;;;;7.19;76.37;99698.23;2170029;81;21015;-81
2021/10/28 16:59:15;;;;;;;16.67;10.27;;;;;;;7.15;76.71;99694.16;2170145;81;21005;-81
2021/10/28 17:02:16;;;;;;;23.10;11.40;;;;;;;7.09;76.93;99689.61;2170197;81;20988;-84
2021/10/28 17:05:16;;;;;;;24.17;10.10;;;;;;;7.06;77.13;99689.91;2170417;81;21005;-82
2021/10/28 17:08:17;;;;;;;30.87;11.47;;;;;;;6.98;77.06;99689.61;2169916;81;21426;-82
2021/10/28 17:11:18;;;;;;;16.13;9.90;;;;;;;6.91;77.45;99687.14;2170514;81;21036;-82
2021/10/28 17:14:18;;;;;;;14.53;10.13;;;;;;;6.83;77.44;99688.55;2170118;81;21036;-79
2021/10/28 17:17:19;;;;;;;22.57;14.13;;;;;;;6.74;77.63;99685.59;2169969;81;20937;-82
2021/10/28 17:20:20;;;;;;;17.13;12.10;;;;;;;6.69;78.29;99677.62;2169482;81;20960;-81
2021/10/28 17:23:29;;;;;;;19.77;13.43;;;;;;;6.66;78.48;99677.91;2169382;81;21359;-81
2021/10/28 17:26:23;;;;;;;20.80;13.47;;;;;;;6.62;78.54;99678.61;2169047;81;21004;-81
2021/10/28 17:29:23;;;;;;;27.13;16.03;;;;;;;6.60;78.97;99678.55;2169461;81;21336;-81
2021/10/28 17:32:25;;;;;;;21.50;13.73;;;;;;;6.59;78.91;99670.70;2168668;81;20985;-82
2021/10/28 17:35:25;;;;;;;22.50;12.33;;;;;;;6.57;78.85;99672.34;2169731;81;21056;-81
2021/10/28 17:38:26;;;;;;;27.37;14.30;;;;;;;6.52;78.80;99673.87;2169783;81;20928;-80
2021/10/28 17:41:26;;;;;;;22.17;15.30;;;;;;;6.48;78.68;99677.16;2169436;81;20929;-82
2021/10/28 17:44:36;;;;;;;29.10;18.70;;;;;;;6.42;78.69;99678.20;2169776;81;20984;-82
2021/10/28 17:47:30;;;;;;;25.30;15.40;;;;;;;6.34;78.77;99675.30;2169890;81;20945;-81
2021/10/28 17:50:30;;;;;;;26.80;17.77;;;;;;;6.33;78.93;99678.70;2170487;81;20960;-82
2021/10/28 17:53:31;;;;;;;25.90;16.57;;;;;;;6.31;79.18;99676.05;2170577;81;20949;-82
2021/10/28 17:56:32;;;;;;;27.07;16.00;;;;;;;6.32;79.06;99679.13;2170374;82;21031;-81
2021/10/28 17:59:33;;;;;;;62.73;17.80;;;;;;;6.29;78.96;99676.40;2170456;81;20951;-81
2021/10/28 18:02:34;;;;;;;24.80;16.60;;;;;;;6.24;78.87;99676.62;2170548;81;21000;-81
2021/10/28 18:05:35;;;;;;;20.77;14.07;;;;;;;6.22;79.23;99674.78;2170432;81;21357;-82
2021/10/28 18:08:36;;;;;;;20.63;14.40;;;;;;;6.16;79.01;99668.92;2170384;81;21387;-82
2021/10/28 18:11:36;;;;;;;20.30;13.67;;;;;;;6.13;79.04;99674.39;2170185;81;20988;-82
2021/10/28 18:14:37;;;;;;;24.47;14.67;;;;;;;6.05;78.94;99669.73;2170067;81;21039;-81
2021/10/28 18:17:37;;;;;;;50.07;14.30;;;;;;;6.00;78.87;99667.77;2171737;82;20984;-82
2021/10/28 18:20:38;;;;;;;51.40;30.30;;;;;;;5.92;78.88;99663.96;2172197;82;20988;-82
2021/10/28 18:23:43;;;;;;;27.77;16.43;;;;;;;5.88;79.08;99668.09;2172042;81;20988;-80
2021/10/28 18:26:41;;;;;;;27.90;15.27;;;;;;;5.85;79.41;99663.19;2171416;82;21088;-82
2021/10/28 18:29:41;;;;;;;28.50;15.93;;;;;;;5.80;79.19;99662.98;2171717;81;20940;-82
2021/10/28 18:32:43;;;;;;;33.13;16.37;;;;;;;5.75;79.22;99661.48;2171300;81;21016;-81
2021/10/28 18:35:43;;;;;;;26.53;16.30;;;;;;;5.71;79.16;99658.29;2171370;82;21360;-81
2021/10/28 18:38:47;;;;;;;29.93;17.33;;;;;;;5.66;79.47;99664.97;2171588;81;21672;-79
2021/10/28 18:41:48;;;;;;;36.50;18.77;;;;;;;5.63;79.49;99662.66;2172486;81;20933;-81
2021/10/28 18:44:50;;;;;;;27.60;17.33;;;;;;;5.60;79.43;99667.29;2171417;82;20968;-81
2021/10/28 18:47:51;;;;;;;31.53;19.07;;;;;;;5.58;79.30;99666.34;2171900;82;21388;-81
2021/10/28 18:50:52;;;;;;;28.47;17.93;;;;;;;5.53;79.09;99657.48;2171585;82;20968;-81
2021/10/28 18:53:52;;;;;;;37.30;20.00;;;;;;;5.46;79.42;99658.02;2171527;82;21058;-82
2021/10/28 18:56:53;;;;;;;31.47;18.13;;;;;;;5.42;79.54;99656.11;2171357;81;21044;-82
2021/10/28 18:59:54;;;;;;;30.53;19.53;;;;;;;5.36;79.46;99649.37;2170543;81;20953;-81
2021/10/28 19:02:55;;;;;;;36.23;23.40;;;;;;;5.33;79.73;99653.11;2170367;81;21354;-80
2021/10/28 19:05:56;;;;;;;66.53;35.80;;;;;;;5.30;80.06;99652.97;2170942;81;21014;-81
2021/10/28 19:08:56;;;;;;;41.60;22.33;;;;;;;5.29;80.09;99657.27;2170557;81;20968;-81
2021/10/28 19:11:57;;;;;;;33.60;22.03;;;;;;;5.26;79.92;99650.66;2170714;81;21032;-80
2021/10/28 19:14:57;;;;;;;31.13;19.90;;;;;;;5.24;80.12;99650.11;2170711;81;20985;-80
2021/10/28 19:17:58;;;;;;;34.27;21.07;;;;;;;5.19;80.05;99648.98;2170426;81;20957;-80
2021/10/28 19:20:58;;;;;;;35.43;21.10;;;;;;;5.15;80.29;99650.54;2170400;81;21314;-82
2021/10/28 19:23:59;;;;;;;362.97;44.83;;;;;;;5.16;80.48;99646.25;2170052;81;21320;-80
2021/10/28 19:27:00;;;;;;;38.13;20.43;;;;;;;5.11;80.29;99646.03;2169419;81;21444;-82
2021/10/28 19:30:15;;;;;;;35.13;21.23;;;;;;;5.08;80.26;99647.19;2169945;81;21371;-81
2021/10/28 19:33:11;;;;;;;27.63;18.63;;;;;;;5.03;80.31;99649.56;2168402;81;20995;-81
2021/10/28 19:36:11;;;;;;;29.30;17.70;;;;;;;5.00;80.63;99645.55;2169931;81;21028;-81
2021/10/28 19:39:20;;;;;;;34.73;17.63;;;;;;;4.97;80.48;99644.11;2170822;81;21033;-80
2021/10/28 19:48:48;;;;;;;38.25;24.10;;;;;;;4.96;81.75;99635.86;2161902;82;21071;-80
2021/10/28 19:51:49;;;;;;;34.40;22.77;;;;;;;4.95;81.29;99634.09;2170244;82;20976;-81
2021/10/28 19:54:50;;;;;;;38.93;24.80;;;;;;;4.96;81.30;99632.39;2171014;81;20961;-80
2021/10/28 19:57:53;;;;;;;41.53;25.27;;;;;;;4.95;81.06;99633.20;2170140;82;20984;-81
2021/10/28 20:01:02;;;;;;;39.27;25.17;;;;;;;4.98;81.47;99632.94;2169788;81;21008;-79
2021/10/28 20:04:12;;;;;;;46.70;27.03;;;;;;;4.96;80.95;99632.39;2169146;81;21048;-80
2021/10/28 20:07:13;;;;;;;47.20;29.10;;;;;;;5.01;82.15;99630.91;2169084;81;20972;-80
2021/10/28 20:13:56;;;;;;;43.13;27.00;;;;;;;5.15;82.19;99627.66;2170304;82;21004;-79
2021/10/28 20:23:06;;;;;;;50.10;31.77;;;;;;;5.24;82.56;99621.63;2161639;82;21348;-81
2021/10/28 20:26:07;;;;;;;47.43;28.57;;;;;;;5.31;82.61;99623.68;2170947;81;20949;-80
2021/10/28 20:29:07;;;;;;;47.23;28.03;;;;;;;5.32;82.19;99621.57;2170439;81;21017;-79
2021/10/28 20:32:08;;;;;;;52.27;33.63;;;;;;;5.34;82.36;99617.34;2170541;81;20953;-81
2021/10/28 20:35:25;;;;;;;61.87;36.30;;;;;;;5.36;82.73;99614.00;2170775;81;20922;-80
2021/10/28 20:38:14;;;;;;;59.07;36.10;;;;;;;5.41;82.67;99618.98;2169713;81;21044;-80
2021/10/28 20:41:14;;;;;;;58.40;36.60;;;;;;;5.54;83.58;99609.16;2170902;81;21356;-80
2021/10/28 20:44:15;;;;;;;55.10;37.37;;;;;;;5.65;83.68;99611.40;2170365;81;21426;-79
2021/10/28 20:47:16;;;;;;;57.10;36.87;;;;;;;5.73;83.71;99613.02;2170924;81;20972;-81
2021/10/28 20:50:16;;;;;;;65.90;38.57;;;;;;;5.78;84.04;99596.37;2170755;81;20957;-81
2021/10/28 20:53:18;;;;;;;60.70;39.03;;;;;;;5.87;83.84;99600.66;2170509;82;20984;-82
2021/10/28 20:56:25;;;;;;;62.83;41.30;;;;;;;5.94;83.92;99599.72;2170720;81;20977;-81
2021/10/28 20:59:21;;;;;;;64.03;39.87;;;;;;;6.02;84.06;99594.86;2170257;81;21064;-80
2021/10/28 21:02:21;;;;;;;61.73;40.33;;;;;;;6.09;84.12;99595.62;2170775;81;20957;-81
2021/10/28 21:05:22;;;;;;;63.77;42.23;;;;;;;6.16;84.09;99591.16;2170882;81;21019;-80
2021/10/28 21:08:24;;;;;;;65.23;41.87;;;;;;;6.24;84.56;99589.77;2171198;81;21320;-81
2021/10/28 21:11:25;;;;;;;62.37;42.00;;;;;;;6.30;84.37;99580.94;2170794;81;20925;-80
2021/10/28 21:14:26;;;;;;;69.87;44.23;;;;;;;6.35;84.20;99579.41;2171102;81;20921;-80
2021/10/28 21:17:28;;;;;;;65.00;42.93;;;;;;;6.41;84.10;99577.89;2161839;82;20946;-79
2021/10/28 21:20:29;;;;;;;70.67;44.40;;;;;;;6.43;84.11;99571.94;2171238;81;21008;-80
2021/10/28 21:23:29;;;;;;;69.77;43.20;;;;;;;6.49;84.24;99581.26;2171065;81;20956;-80
2021/10/28 21:26:30;;;;;;;66.13;42.23;;;;;;;6.56;84.14;99578.08;2170967;82;20953;-81
2021/10/28 21:29:33;;;;;;;68.80;42.67;;;;;;;6.64;83.93;99580.56;2170834;81;21016;-80
2021/10/28 21:32:33;;;;;;;70.80;43.97;;;;;;;6.66;83.52;99578.91;2171003;81;21056;-79
2021/10/28 21:35:33;;;;;;;68.80;43.67;;;;;;;6.67;83.81;99570.30;2171062;81;20953;-82
2021/10/28 21:38:34;;;;;;;76.70;43.67;;;;;;;6.73;83.44;99580.03;2170932;81;20965;-80
2021/10/28 21:41:34;;;;;;;96.17;62.33;;;;;;;6.74;83.09;99571.84;2170714;81;21066;-80
2021/10/28 21:44:35;;;;;;;89.60;54.07;;;;;;;6.74;83.28;99571.42;2170666;81;21008;-80
2021/10/28 21:47:35;;;;;;;74.77;45.50;;;;;;;6.78;83.25;99569.83;2170847;81;20929;-80
2021/10/28 21:50:36;;;;;;;67.40;44.40;;;;;;;6.78;82.94;99568.12;2170886;82;20984;-80
2021/10/28 21:53:40;;;;;;;65.90;42.30;;;;;;;6.79;82.89;99576.38;2170716;82;20993;-81
2021/10/28 21:56:44;;;;;;;72.87;44.83;;;;;;;6.79;83.04;99578.09;2170803;81;21068;-79